sensor_id;sensor_type;location;lat;lon;timestamp;P1;durP1;ratioP1;P2;durP2;ratioP2
13985;SDS011;7067;51.832;8.296;2023-06-26T00:00:02;9.27;;;8.48;;
13985;SDS011;7067;51.832;8.296;2023-06-26T00:02:30;8.52;;;7.90;;
13985;SDS011;7067;51.832;8.296;2023-06-26T00:04:57;8.93;;;8.23;;
13985;SDS011;7067;51.832;8.296;2023-06-26T00:07:23;8.40;;;7.82;;
13985;SDS011;7067;51.832;8.296;2023-06-26T00:09:49;8.27;;;7.57;;
13985;SDS011;7067;51.832;8.296;2023-06-26T00:12:21;8.40;;;7.70;;
13985;SDS011;7067;51.832;8.296;2023-06-26T00:14:51;9.55;;;8.85;;
13985;SDS011;7067;51.832;8.296;2023-06-26T00:17:27;9.05;;;8.15;;
13985;SDS011;7067;51.832;8.296;2023-06-26T00:20:07;8.27;;;7.68;;
13985;SDS011;7067;51.832;8.296;2023-06-26T00:22:36;8.35;;;7.75;;
13985;SDS011;7067;51.832;8.296;2023-06-26T00:25:06;8.55;;;7.95;;
13985;SDS011;7067;51.832;8.296;2023-06-26T00:27:34;7.95;;;7.35;;
13985;SDS011;7067;51.832;8.296;2023-06-26T00:30:13;8.20;;;7.53;;
13985;SDS011;7067;51.832;8.296;2023-06-26T00:32:54;8.65;;;7.95;;
13985;SDS011;7067;51.832;8.296;2023-06-26T00:35:35;8.95;;;8.23;;
13985;SDS011;7067;51.832;8.296;2023-06-26T00:38:19;8.73;;;8.05;;
13985;SDS011;7067;51.832;8.296;2023-06-26T00:41:02;8.68;;;8.07;;
13985;SDS011;7067;51.832;8.296;2023-06-26T00:43:46;8.68;;;8.07;;
13985;SDS011;7067;51.832;8.296;2023-06-26T00:46:30;8.55;;;7.78;;
13985;SDS011;7067;51.832;8.296;2023-06-26T00:49:14;9.30;;;8.45;;
13985;SDS011;7067;51.832;8.296;2023-06-26T00:51:57;9.00;;;8.07;;
13985;SDS011;7067;51.832;8.296;2023-06-26T00:54:41;8.05;;;7.45;;
13985;SDS011;7067;51.832;8.296;2023-06-26T00:57:26;7.95;;;7.40;;
13985;SDS011;7067;51.832;8.296;2023-06-26T01:00:11;8.30;;;7.70;;
13985;SDS011;7067;51.832;8.296;2023-06-26T01:02:55;8.60;;;7.70;;
13985;SDS011;7067;51.832;8.296;2023-06-26T01:05:38;8.73;;;7.97;;
13985;SDS011;7067;51.832;8.296;2023-06-26T01:08:22;8.32;;;7.70;;
13985;SDS011;7067;51.832;8.296;2023-06-26T01:11:07;8.27;;;7.68;;
13985;SDS011;7067;51.832;8.296;2023-06-26T01:13:51;8.00;;;7.40;;
13985;SDS011;7067;51.832;8.296;2023-06-26T01:16:35;8.18;;;7.57;;
13985;SDS011;7067;51.832;8.296;2023-06-26T01:19:27;8.70;;;8.10;;
13985;SDS011;7067;51.832;8.296;2023-06-26T01:28:42;8.73;;;8.02;;
13985;SDS011;7067;51.832;8.296;2023-06-26T01:31:27;7.90;;;7.38;;
13985;SDS011;7067;51.832;8.296;2023-06-26T01:34:14;8.98;;;8.25;;
13985;SDS011;7067;51.832;8.296;2023-06-26T01:36:58;12.68;;;8.68;;
13985;SDS011;7067;51.832;8.296;2023-06-26T01:39:42;9.20;;;8.50;;
13985;SDS011;7067;51.832;8.296;2023-06-26T01:42:26;10.10;;;8.48;;
13985;SDS011;7067;51.832;8.296;2023-06-26T01:45:12;9.48;;;8.57;;
13985;SDS011;7067;51.832;8.296;2023-06-26T01:47:58;9.50;;;8.70;;
13985;SDS011;7067;51.832;8.296;2023-06-26T01:50:45;8.43;;;7.82;;
13985;SDS011;7067;51.832;8.296;2023-06-26T01:53:31;8.90;;;8.20;;
13985;SDS011;7067;51.832;8.296;2023-06-26T01:56:17;9.07;;;8.27;;
13985;SDS011;7067;51.832;8.296;2023-06-26T01:59:01;9.52;;;8.70;;
13985;SDS011;7067;51.832;8.296;2023-06-26T02:01:46;9.60;;;8.90;;
13985;SDS011;7067;51.832;8.296;2023-06-26T02:04:32;9.55;;;8.73;;
13985;SDS011;7067;51.832;8.296;2023-06-26T02:07:16;8.77;;;8.07;;
13985;SDS011;7067;51.832;8.296;2023-06-26T02:10:00;9.65;;;8.95;;
13985;SDS011;7067;51.832;8.296;2023-06-26T02:12:43;9.88;;;9.15;;
13985;SDS011;7067;51.832;8.296;2023-06-26T02:15:27;9.73;;;8.93;;
13985;SDS011;7067;51.832;8.296;2023-06-26T02:18:11;9.63;;;8.82;;
13985;SDS011;7067;51.832;8.296;2023-06-26T02:20:55;8.60;;;8.00;;
13985;SDS011;7067;51.832;8.296;2023-06-26T02:23:39;10.30;;;9.40;;
13985;SDS011;7067;51.832;8.296;2023-06-26T02:26:22;9.15;;;8.52;;
13985;SDS011;7067;51.832;8.296;2023-06-26T02:29:06;9.55;;;8.85;;
13985;SDS011;7067;51.832;8.296;2023-06-26T02:31:50;8.82;;;7.95;;
13985;SDS011;7067;51.832;8.296;2023-06-26T02:34:34;9.45;;;8.63;;
13985;SDS011;7067;51.832;8.296;2023-06-26T02:37:18;9.40;;;8.70;;
13985;SDS011;7067;51.832;8.296;2023-06-26T02:40:03;8.82;;;8.10;;
13985;SDS011;7067;51.832;8.296;2023-06-26T02:42:46;8.98;;;8.18;;
13985;SDS011;7067;51.832;8.296;2023-06-26T02:45:31;9.75;;;7.97;;
13985;SDS011;7067;51.832;8.296;2023-06-26T02:48:15;8.50;;;7.88;;
13985;SDS011;7067;51.832;8.296;2023-06-26T02:50:59;8.73;;;7.88;;
13985;SDS011;7067;51.832;8.296;2023-06-26T02:53:43;8.48;;;7.68;;
13985;SDS011;7067;51.832;8.296;2023-06-26T02:56:27;9.40;;;8.48;;
13985;SDS011;7067;51.832;8.296;2023-06-26T02:59:11;8.75;;;8.02;;
13985;SDS011;7067;51.832;8.296;2023-06-26T03:01:54;8.40;;;7.57;;
13985;SDS011;7067;51.832;8.296;2023-06-26T03:04:38;9.73;;;8.73;;
13985;SDS011;7067;51.832;8.296;2023-06-26T03:07:22;8.50;;;7.90;;
13985;SDS011;7067;51.832;8.296;2023-06-26T03:10:06;9.15;;;8.35;;
13985;SDS011;7067;51.832;8.296;2023-06-26T03:12:50;8.82;;;8.13;;
13985;SDS011;7067;51.832;8.296;2023-06-26T03:15:34;9.75;;;8.90;;
13985;SDS011;7067;51.832;8.296;2023-06-26T03:18:18;9.82;;;8.20;;
13985;SDS011;7067;51.832;8.296;2023-06-26T03:21:01;8.57;;;7.70;;
13985;SDS011;7067;51.832;8.296;2023-06-26T03:23:45;8.63;;;7.82;;
13985;SDS011;7067;51.832;8.296;2023-06-26T03:26:40;8.95;;;7.80;;
13985;SDS011;7067;51.832;8.296;2023-06-26T03:29:24;8.77;;;7.97;;
13985;SDS011;7067;51.832;8.296;2023-06-26T03:32:08;8.57;;;7.50;;
13985;SDS011;7067;51.832;8.296;2023-06-26T03:34:52;9.10;;;8.35;;
13985;SDS011;7067;51.832;8.296;2023-06-26T03:38:08;9.52;;;7.82;;
13985;SDS011;7067;51.832;8.296;2023-06-26T03:40:52;7.22;;;6.63;;
13985;SDS011;7067;51.832;8.296;2023-06-26T03:43:36;7.93;;;7.28;;
13985;SDS011;7067;51.832;8.296;2023-06-26T03:46:21;8.45;;;7.75;;
13985;SDS011;7067;51.832;8.296;2023-06-26T03:49:05;8.32;;;7.50;;
13985;SDS011;7067;51.832;8.296;2023-06-26T03:51:49;8.07;;;7.38;;
13985;SDS011;7067;51.832;8.296;2023-06-26T03:54:33;8.43;;;7.72;;
13985;SDS011;7067;51.832;8.296;2023-06-26T03:57:17;8.93;;;8.07;;
13985;SDS011;7067;51.832;8.296;2023-06-26T04:00:02;8.95;;;7.28;;
13985;SDS011;7067;51.832;8.296;2023-06-26T04:02:46;7.03;;;6.53;;
13985;SDS011;7067;51.832;8.296;2023-06-26T04:05:29;8.25;;;7.65;;
13985;SDS011;7067;51.832;8.296;2023-06-26T04:08:14;7.85;;;7.10;;
13985;SDS011;7067;51.832;8.296;2023-06-26T04:10:57;7.57;;;6.88;;
13985;SDS011;7067;51.832;8.296;2023-06-26T04:13:41;8.07;;;7.28;;
13985;SDS011;7067;51.832;8.296;2023-06-26T04:16:25;7.72;;;7.03;;
13985;SDS011;7067;51.832;8.296;2023-06-26T04:19:10;8.23;;;7.63;;
13985;SDS011;7067;51.832;8.296;2023-06-26T04:22:01;7.82;;;7.13;;
13985;SDS011;7067;51.832;8.296;2023-06-26T04:24:45;7.88;;;6.97;;
13985;SDS011;7067;51.832;8.296;2023-06-26T04:27:31;6.45;;;5.95;;
13985;SDS011;7067;51.832;8.296;2023-06-26T04:30:22;7.15;;;6.55;;
13985;SDS011;7067;51.832;8.296;2023-06-26T04:33:06;10.20;;;7.05;;
13985;SDS011;7067;51.832;8.296;2023-06-26T04:36:20;8.40;;;6.95;;
13985;SDS011;7067;51.832;8.296;2023-06-26T04:39:12;7.60;;;6.95;;
13985;SDS011;7067;51.832;8.296;2023-06-26T04:41:58;7.65;;;7.05;;
13985;SDS011;7067;51.832;8.296;2023-06-26T04:44:55;9.25;;;6.82;;
13985;SDS011;7067;51.832;8.296;2023-06-26T04:48:12;6.97;;;6.38;;
13985;SDS011;7067;51.832;8.296;2023-06-26T04:51:30;7.45;;;6.63;;
13985;SDS011;7067;51.832;8.296;2023-06-26T04:54:44;7.72;;;6.97;;
13985;SDS011;7067;51.832;8.296;2023-06-26T04:57:38;7.18;;;6.32;;
13985;SDS011;7067;51.832;8.296;2023-06-26T05:00:55;7.65;;;6.63;;
13985;SDS011;7067;51.832;8.296;2023-06-26T05:04:04;6.60;;;6.00;;
13985;SDS011;7067;51.832;8.296;2023-06-26T05:07:11;5.80;;;5.30;;
13985;SDS011;7067;51.832;8.296;2023-06-26T05:09:55;6.72;;;6.22;;
13985;SDS011;7067;51.832;8.296;2023-06-26T05:12:43;5.75;;;5.22;;
13985;SDS011;7067;51.832;8.296;2023-06-26T05:15:36;6.07;;;5.40;;
13985;SDS011;7067;51.832;8.296;2023-06-26T05:18:21;7.15;;;6.00;;
13985;SDS011;7067;51.832;8.296;2023-06-26T05:21:04;6.22;;;5.72;;
13985;SDS011;7067;51.832;8.296;2023-06-26T05:23:49;8.00;;;5.50;;
13985;SDS011;7067;51.832;8.296;2023-06-26T05:26:35;6.05;;;5.10;;
13985;SDS011;7067;51.832;8.296;2023-06-26T05:29:19;5.78;;;5.38;;
13985;SDS011;7067;51.832;8.296;2023-06-26T05:32:04;5.72;;;5.22;;
13985;SDS011;7067;51.832;8.296;2023-06-26T05:34:48;6.20;;;5.45;;
13985;SDS011;7067;51.832;8.296;2023-06-26T05:37:32;7.55;;;5.53;;
13985;SDS011;7067;51.832;8.296;2023-06-26T05:40:17;5.88;;;5.38;;
13985;SDS011;7067;51.832;8.296;2023-06-26T05:43:01;6.03;;;5.53;;
13985;SDS011;7067;51.832;8.296;2023-06-26T05:45:46;5.53;;;5.13;;
13985;SDS011;7067;51.832;8.296;2023-06-26T05:48:30;6.68;;;5.88;;
13985;SDS011;7067;51.832;8.296;2023-06-26T05:51:14;6.68;;;6.18;;
13985;SDS011;7067;51.832;8.296;2023-06-26T05:53:58;6.75;;;6.15;;
13985;SDS011;7067;51.832;8.296;2023-06-26T05:56:42;6.07;;;5.57;;
13985;SDS011;7067;51.832;8.296;2023-06-26T05:59:26;6.60;;;5.93;;
13985;SDS011;7067;51.832;8.296;2023-06-26T06:02:11;6.05;;;5.55;;
13985;SDS011;7067;51.832;8.296;2023-06-26T06:04:54;6.65;;;6.10;;
13985;SDS011;7067;51.832;8.296;2023-06-26T06:07:38;7.22;;;5.65;;
13985;SDS011;7067;51.832;8.296;2023-06-26T06:10:22;7.53;;;6.00;;
13985;SDS011;7067;51.832;8.296;2023-06-26T06:13:06;8.05;;;6.63;;
13985;SDS011;7067;51.832;8.296;2023-06-26T06:15:49;6.82;;;6.28;;
13985;SDS011;7067;51.832;8.296;2023-06-26T06:18:33;6.90;;;6.30;;
13985;SDS011;7067;51.832;8.296;2023-06-26T06:21:17;7.03;;;6.32;;
13985;SDS011;7067;51.832;8.296;2023-06-26T06:24:00;8.90;;;6.45;;
13985;SDS011;7067;51.832;8.296;2023-06-26T06:26:43;7.43;;;6.72;;
13985;SDS011;7067;51.832;8.296;2023-06-26T06:29:26;8.10;;;6.43;;
13985;SDS011;7067;51.832;8.296;2023-06-26T06:32:02;6.85;;;6.35;;
13985;SDS011;7067;51.832;8.296;2023-06-26T06:34:32;6.82;;;6.22;;
13985;SDS011;7067;51.832;8.296;2023-06-26T06:37:01;7.63;;;6.50;;
13985;SDS011;7067;51.832;8.296;2023-06-26T06:39:36;7.65;;;6.75;;
13985;SDS011;7067;51.832;8.296;2023-06-26T06:42:05;7.50;;;6.82;;
13985;SDS011;7067;51.832;8.296;2023-06-26T06:44:30;9.82;;;6.97;;
13985;SDS011;7067;51.832;8.296;2023-06-26T06:46:56;7.75;;;7.05;;
13985;SDS011;7067;51.832;8.296;2023-06-26T06:49:22;7.25;;;6.57;;
13985;SDS011;7067;51.832;8.296;2023-06-26T06:51:47;9.93;;;7.00;;
13985;SDS011;7067;51.832;8.296;2023-06-26T06:54:12;6.65;;;6.15;;
13985;SDS011;7067;51.832;8.296;2023-06-26T06:56:38;7.13;;;6.53;;
13985;SDS011;7067;51.832;8.296;2023-06-26T06:59:03;6.50;;;6.00;;
13985;SDS011;7067;51.832;8.296;2023-06-26T07:01:28;7.35;;;6.43;;
13985;SDS011;7067;51.832;8.296;2023-06-26T07:03:54;7.65;;;6.90;;
13985;SDS011;7067;51.832;8.296;2023-06-26T07:06:19;8.40;;;7.63;;
13985;SDS011;7067;51.832;8.296;2023-06-26T07:08:44;8.25;;;7.25;;
13985;SDS011;7067;51.832;8.296;2023-06-26T07:11:10;7.57;;;6.78;;
13985;SDS011;7067;51.832;8.296;2023-06-26T07:13:35;8.75;;;8.07;;
13985;SDS011;7067;51.832;8.296;2023-06-26T07:16:01;8.07;;;7.35;;
13985;SDS011;7067;51.832;8.296;2023-06-26T07:18:26;8.05;;;7.18;;
13985;SDS011;7067;51.832;8.296;2023-06-26T07:20:52;8.10;;;7.25;;
13985;SDS011;7067;51.832;8.296;2023-06-26T07:23:17;8.20;;;7.35;;
13985;SDS011;7067;51.832;8.296;2023-06-26T07:25:42;9.27;;;8.20;;
13985;SDS011;7067;51.832;8.296;2023-06-26T07:28:11;9.30;;;8.40;;
13985;SDS011;7067;51.832;8.296;2023-06-26T07:30:37;8.93;;;7.90;;
13985;SDS011;7067;51.832;8.296;2023-06-26T07:33:02;12.18;;;7.07;;
13985;SDS011;7067;51.832;8.296;2023-06-26T07:35:28;7.53;;;6.90;;
13985;SDS011;7067;51.832;8.296;2023-06-26T07:37:53;8.32;;;7.30;;
13985;SDS011;7067;51.832;8.296;2023-06-26T07:40:18;7.82;;;7.03;;
13985;SDS011;7067;51.832;8.296;2023-06-26T07:42:44;8.68;;;7.40;;
13985;SDS011;7067;51.832;8.296;2023-06-26T07:45:09;8.88;;;7.47;;
13985;SDS011;7067;51.832;8.296;2023-06-26T07:47:37;9.43;;;8.50;;
13985;SDS011;7067;51.832;8.296;2023-06-26T07:50:03;8.10;;;7.40;;
13985;SDS011;7067;51.832;8.296;2023-06-26T07:52:29;13.20;;;8.00;;
13985;SDS011;7067;51.832;8.296;2023-06-26T07:54:55;7.32;;;6.70;;
13985;SDS011;7067;51.832;8.296;2023-06-26T07:57:21;12.00;;;6.88;;
13985;SDS011;7067;51.832;8.296;2023-06-26T07:59:46;9.05;;;6.78;;
13985;SDS011;7067;51.832;8.296;2023-06-26T08:02:11;7.68;;;6.53;;
13985;SDS011;7067;51.832;8.296;2023-06-26T08:04:37;7.35;;;6.70;;
13985;SDS011;7067;51.832;8.296;2023-06-26T08:07:02;10.15;;;6.68;;
13985;SDS011;7067;51.832;8.296;2023-06-26T08:09:29;9.05;;;6.82;;
13985;SDS011;7067;51.832;8.296;2023-06-26T08:11:55;9.30;;;7.10;;
13985;SDS011;7067;51.832;8.296;2023-06-26T08:14:21;6.82;;;5.82;;
13985;SDS011;7067;51.832;8.296;2023-06-26T08:16:46;7.40;;;6.65;;
13985;SDS011;7067;51.832;8.296;2023-06-26T08:19:12;8.38;;;7.10;;
13985;SDS011;7067;51.832;8.296;2023-06-26T08:21:39;7.80;;;6.88;;
13985;SDS011;7067;51.832;8.296;2023-06-26T08:24:08;11.02;;;7.22;;
13985;SDS011;7067;51.832;8.296;2023-06-26T08:26:34;9.23;;;6.40;;
13985;SDS011;7067;51.832;8.296;2023-06-26T08:28:59;7.93;;;6.00;;
13985;SDS011;7067;51.832;8.296;2023-06-26T08:31:24;8.23;;;7.25;;
13985;SDS011;7067;51.832;8.296;2023-06-26T08:33:50;7.90;;;6.90;;
13985;SDS011;7067;51.832;8.296;2023-06-26T08:36:15;7.72;;;6.80;;
13985;SDS011;7067;51.832;8.296;2023-06-26T08:38:41;8.77;;;7.18;;
13985;SDS011;7067;51.832;8.296;2023-06-26T08:41:06;7.28;;;6.63;;
13985;SDS011;7067;51.832;8.296;2023-06-26T08:43:32;8.43;;;7.68;;
13985;SDS011;7067;51.832;8.296;2023-06-26T08:45:58;8.10;;;7.40;;
13985;SDS011;7067;51.832;8.296;2023-06-26T08:48:24;8.32;;;7.03;;
13985;SDS011;7067;51.832;8.296;2023-06-26T08:50:52;8.88;;;6.85;;
13985;SDS011;7067;51.832;8.296;2023-06-26T08:53:33;7.53;;;6.43;;
13985;SDS011;7067;51.832;8.296;2023-06-26T08:56:10;9.38;;;7.15;;
13985;SDS011;7067;51.832;8.296;2023-06-26T08:58:37;11.73;;;7.55;;
13985;SDS011;7067;51.832;8.296;2023-06-26T09:01:03;8.10;;;6.78;;
13985;SDS011;7067;51.832;8.296;2023-06-26T09:03:29;8.90;;;7.03;;
13985;SDS011;7067;51.832;8.296;2023-06-26T09:05:55;14.70;;;7.25;;
13985;SDS011;7067;51.832;8.296;2023-06-26T09:08:21;6.15;;;5.63;;
13985;SDS011;7067;51.832;8.296;2023-06-26T09:10:46;9.07;;;7.07;;
13985;SDS011;7067;51.832;8.296;2023-06-26T09:13:11;9.63;;;7.15;;
13985;SDS011;7067;51.832;8.296;2023-06-26T09:15:43;9.98;;;6.28;;
13985;SDS011;7067;51.832;8.296;2023-06-26T09:18:09;8.00;;;5.78;;
13985;SDS011;7067;51.832;8.296;2023-06-26T09:20:35;8.48;;;6.03;;
13985;SDS011;7067;51.832;8.296;2023-06-26T09:23:01;10.73;;;6.68;;
13985;SDS011;7067;51.832;8.296;2023-06-26T09:25:30;9.65;;;6.72;;
13985;SDS011;7067;51.832;8.296;2023-06-26T09:27:56;12.07;;;7.38;;
13985;SDS011;7067;51.832;8.296;2023-06-26T09:30:21;6.32;;;5.80;;
13985;SDS011;7067;51.832;8.296;2023-06-26T09:32:47;9.48;;;6.90;;
13985;SDS011;7067;51.832;8.296;2023-06-26T09:35:12;7.85;;;6.05;;
13985;SDS011;7067;51.832;8.296;2023-06-26T09:37:38;8.48;;;6.22;;
13985;SDS011;7067;51.832;8.296;2023-06-26T09:40:04;17.02;;;7.60;;
13985;SDS011;7067;51.832;8.296;2023-06-26T09:42:30;10.35;;;6.20;;
13985;SDS011;7067;51.832;8.296;2023-06-26T09:44:55;10.52;;;6.22;;
13985;SDS011;7067;51.832;8.296;2023-06-26T09:47:21;8.13;;;6.68;;
13985;SDS011;7067;51.832;8.296;2023-06-26T09:49:46;8.65;;;6.97;;
13985;SDS011;7067;51.832;8.296;2023-06-26T09:52:15;7.45;;;6.53;;
13985;SDS011;7067;51.832;8.296;2023-06-26T09:54:45;6.82;;;6.13;;
13985;SDS011;7067;51.832;8.296;2023-06-26T09:59:42;9.70;;;5.55;;
13985;SDS011;7067;51.832;8.296;2023-06-26T10:02:11;6.53;;;5.28;;
13985;SDS011;7067;51.832;8.296;2023-06-26T10:04:37;7.70;;;5.82;;
13985;SDS011;7067;51.832;8.296;2023-06-26T10:07:06;10.32;;;6.10;;
13985;SDS011;7067;51.832;8.296;2023-06-26T10:09:33;8.00;;;5.32;;
13985;SDS011;7067;51.832;8.296;2023-06-26T10:12:03;8.80;;;5.30;;
13985;SDS011;7067;51.832;8.296;2023-06-26T10:14:39;9.20;;;6.03;;
13985;SDS011;7067;51.832;8.296;2023-06-26T10:17:09;6.78;;;6.05;;
13985;SDS011;7067;51.832;8.296;2023-06-26T10:19:35;6.70;;;5.10;;
13985;SDS011;7067;51.832;8.296;2023-06-26T10:22:03;9.23;;;5.97;;
13985;SDS011;7067;51.832;8.296;2023-06-26T10:24:30;11.23;;;6.40;;
13985;SDS011;7067;51.832;8.296;2023-06-26T10:27:04;8.43;;;5.78;;
13985;SDS011;7067;51.832;8.296;2023-06-26T10:29:34;10.43;;;5.10;;
13985;SDS011;7067;51.832;8.296;2023-06-26T10:32:00;8.52;;;5.90;;
13985;SDS011;7067;51.832;8.296;2023-06-26T10:34:29;7.20;;;4.50;;
13985;SDS011;7067;51.832;8.296;2023-06-26T10:37:03;4.35;;;3.95;;
13985;SDS011;7067;51.832;8.296;2023-06-26T10:39:51;6.78;;;4.32;;
13985;SDS011;7067;51.832;8.296;2023-06-26T10:42:19;6.00;;;4.82;;
13985;SDS011;7067;51.832;8.296;2023-06-26T10:44:46;7.50;;;5.22;;
13985;SDS011;7067;51.832;8.296;2023-06-26T10:47:33;10.45;;;5.15;;
13985;SDS011;7067;51.832;8.296;2023-06-26T10:50:19;6.32;;;4.47;;
13985;SDS011;7067;51.832;8.296;2023-06-26T10:52:44;5.80;;;4.45;;
13985;SDS011;7067;51.832;8.296;2023-06-26T10:55:10;8.10;;;4.75;;
13985;SDS011;7067;51.832;8.296;2023-06-26T10:57:35;5.35;;;4.00;;
13985;SDS011;7067;51.832;8.296;2023-06-26T11:00:11;7.57;;;4.40;;
13985;SDS011;7067;51.832;8.296;2023-06-26T11:02:49;6.88;;;4.75;;
13985;SDS011;7067;51.832;8.296;2023-06-26T11:05:26;8.05;;;4.40;;
13985;SDS011;7067;51.832;8.296;2023-06-26T11:08:10;4.20;;;3.38;;
13985;SDS011;7067;51.832;8.296;2023-06-26T11:10:53;5.00;;;4.40;;
13985;SDS011;7067;51.832;8.296;2023-06-26T11:13:20;6.28;;;4.10;;
13985;SDS011;7067;51.832;8.296;2023-06-26T11:15:46;10.02;;;4.55;;
13985;SDS011;7067;51.832;8.296;2023-06-26T11:18:12;5.18;;;3.55;;
13985;SDS011;7067;51.832;8.296;2023-06-26T11:20:37;6.20;;;3.40;;
13985;SDS011;7067;51.832;8.296;2023-06-26T11:23:03;5.40;;;3.22;;
13985;SDS011;7067;51.832;8.296;2023-06-26T11:25:34;5.13;;;2.92;;
13985;SDS011;7067;51.832;8.296;2023-06-26T11:28:00;9.63;;;3.35;;
13985;SDS011;7067;51.832;8.296;2023-06-26T11:30:25;5.40;;;2.75;;
13985;SDS011;7067;51.832;8.296;2023-06-26T11:32:51;4.57;;;2.78;;
13985;SDS011;7067;51.832;8.296;2023-06-26T11:35:23;2.97;;;2.67;;
13985;SDS011;7067;51.832;8.296;2023-06-26T11:37:58;3.22;;;2.40;;
13985;SDS011;7067;51.832;8.296;2023-06-26T11:40:29;4.00;;;2.88;;
13985;SDS011;7067;51.832;8.296;2023-06-26T11:42:57;5.30;;;2.45;;
13985;SDS011;7067;51.832;8.296;2023-06-26T11:45:23;2.92;;;2.35;;
13985;SDS011;7067;51.832;8.296;2023-06-26T11:47:49;3.10;;;2.47;;
13985;SDS011;7067;51.832;8.296;2023-06-26T11:50:17;5.35;;;2.17;;
13985;SDS011;7067;51.832;8.296;2023-06-26T11:52:43;2.45;;;2.13;;
13985;SDS011;7067;51.832;8.296;2023-06-26T11:55:09;3.17;;;2.33;;
13985;SDS011;7067;51.832;8.296;2023-06-26T11:57:37;3.83;;;2.57;;
13985;SDS011;7067;51.832;8.296;2023-06-26T12:00:12;7.78;;;2.60;;
13985;SDS011;7067;51.832;8.296;2023-06-26T12:02:38;3.88;;;2.35;;
13985;SDS011;7067;51.832;8.296;2023-06-26T12:05:04;5.45;;;3.40;;
13985;SDS011;7067;51.832;8.296;2023-06-26T12:07:30;3.67;;;2.47;;
13985;SDS011;7067;51.832;8.296;2023-06-26T12:09:56;3.10;;;2.65;;
13985;SDS011;7067;51.832;8.296;2023-06-26T12:12:23;5.82;;;2.72;;
13985;SDS011;7067;51.832;8.296;2023-06-26T12:14:48;3.97;;;2.38;;
13985;SDS011;7067;51.832;8.296;2023-06-26T12:17:14;4.88;;;2.85;;
13985;SDS011;7067;51.832;8.296;2023-06-26T12:19:45;4.22;;;2.35;;
13985;SDS011;7067;51.832;8.296;2023-06-26T12:22:13;3.28;;;2.75;;
13985;SDS011;7067;51.832;8.296;2023-06-26T12:24:38;3.28;;;2.22;;
13985;SDS011;7067;51.832;8.296;2023-06-26T12:27:11;2.78;;;1.90;;
13985;SDS011;7067;51.832;8.296;2023-06-26T12:29:40;2.67;;;2.13;;
13985;SDS011;7067;51.832;8.296;2023-06-26T12:32:10;4.65;;;1.95;;
13985;SDS011;7067;51.832;8.296;2023-06-26T12:34:37;5.28;;;1.92;;
13985;SDS011;7067;51.832;8.296;2023-06-26T12:37:04;2.17;;;2.00;;
13985;SDS011;7067;51.832;8.296;2023-06-26T12:39:44;3.40;;;1.83;;
13985;SDS011;7067;51.832;8.296;2023-06-26T12:42:17;1.90;;;1.80;;
13985;SDS011;7067;51.832;8.296;2023-06-26T12:44:43;4.63;;;3.40;;
13985;SDS011;7067;51.832;8.296;2023-06-26T12:47:08;3.13;;;2.22;;
13985;SDS011;7067;51.832;8.296;2023-06-26T12:49:36;2.47;;;2.05;;
13985;SDS011;7067;51.832;8.296;2023-06-26T12:52:04;2.60;;;2.10;;
13985;SDS011;7067;51.832;8.296;2023-06-26T12:54:31;3.95;;;2.30;;
13985;SDS011;7067;51.832;8.296;2023-06-26T12:56:57;3.50;;;1.65;;
13985;SDS011;7067;51.832;8.296;2023-06-26T12:59:23;2.72;;;2.08;;
13985;SDS011;7067;51.832;8.296;2023-06-26T13:01:48;4.50;;;2.78;;
13985;SDS011;7067;51.832;8.296;2023-06-26T13:04:14;2.90;;;2.20;;
13985;SDS011;7067;51.832;8.296;2023-06-26T13:06:39;3.22;;;2.25;;
13985;SDS011;7067;51.832;8.296;2023-06-26T13:09:05;2.90;;;2.13;;
13985;SDS011;7067;51.832;8.296;2023-06-26T13:11:31;2.95;;;1.90;;
13985;SDS011;7067;51.832;8.296;2023-06-26T13:13:56;3.25;;;1.95;;
13985;SDS011;7067;51.832;8.296;2023-06-26T13:16:22;3.05;;;2.00;;
13985;SDS011;7067;51.832;8.296;2023-06-26T13:18:47;4.60;;;2.20;;
13985;SDS011;7067;51.832;8.296;2023-06-26T13:21:13;3.65;;;2.20;;
13985;SDS011;7067;51.832;8.296;2023-06-26T13:23:42;4.20;;;2.85;;
13985;SDS011;7067;51.832;8.296;2023-06-26T13:26:08;2.63;;;2.42;;
13985;SDS011;7067;51.832;8.296;2023-06-26T13:28:33;5.32;;;2.08;;
13985;SDS011;7067;51.832;8.296;2023-06-26T13:30:59;2.97;;;2.40;;
13985;SDS011;7067;51.832;8.296;2023-06-26T13:33:24;2.85;;;2.53;;
13985;SDS011;7067;51.832;8.296;2023-06-26T13:35:52;3.15;;;2.22;;
13985;SDS011;7067;51.832;8.296;2023-06-26T13:38:19;2.75;;;1.70;;
13985;SDS011;7067;51.832;8.296;2023-06-26T13:40:49;2.80;;;1.75;;
13985;SDS011;7067;51.832;8.296;2023-06-26T13:43:15;3.40;;;1.80;;
13985;SDS011;7067;51.832;8.296;2023-06-26T13:45:41;2.45;;;1.50;;
13985;SDS011;7067;51.832;8.296;2023-06-26T13:48:06;1.85;;;1.60;;
13985;SDS011;7067;51.832;8.296;2023-06-26T13:50:32;2.70;;;1.90;;
13985;SDS011;7067;51.832;8.296;2023-06-26T13:52:57;2.53;;;1.50;;
13985;SDS011;7067;51.832;8.296;2023-06-26T13:55:22;6.13;;;2.60;;
13985;SDS011;7067;51.832;8.296;2023-06-26T13:57:48;2.88;;;1.80;;
13985;SDS011;7067;51.832;8.296;2023-06-26T14:00:14;2.22;;;1.73;;
13985;SDS011;7067;51.832;8.296;2023-06-26T14:02:44;1.67;;;1.08;;
13985;SDS011;7067;51.832;8.296;2023-06-26T14:05:10;2.17;;;1.17;;
13985;SDS011;7067;51.832;8.296;2023-06-26T14:07:35;2.67;;;1.52;;
13985;SDS011;7067;51.832;8.296;2023-06-26T14:10:02;2.05;;;0.90;;
13985;SDS011;7067;51.832;8.296;2023-06-26T14:12:28;2.60;;;1.17;;
13985;SDS011;7067;51.832;8.296;2023-06-26T14:14:53;5.72;;;1.05;;
13985;SDS011;7067;51.832;8.296;2023-06-26T14:17:19;1.23;;;1.00;;
13985;SDS011;7067;51.832;8.296;2023-06-26T14:19:44;2.42;;;1.30;;
13985;SDS011;7067;51.832;8.296;2023-06-26T14:22:10;2.42;;;0.93;;
13985;SDS011;7067;51.832;8.296;2023-06-26T14:24:36;2.80;;;0.95;;
13985;SDS011;7067;51.832;8.296;2023-06-26T14:27:01;4.45;;;1.00;;
13985;SDS011;7067;51.832;8.296;2023-06-26T14:29:26;2.30;;;1.23;;
13985;SDS011;7067;51.832;8.296;2023-06-26T14:31:52;2.80;;;0.60;;
13985;SDS011;7067;51.832;8.296;2023-06-26T14:34:17;2.83;;;0.85;;
13985;SDS011;7067;51.832;8.296;2023-06-26T14:36:43;1.38;;;0.70;;
13985;SDS011;7067;51.832;8.296;2023-06-26T14:39:08;1.08;;;0.80;;
13985;SDS011;7067;51.832;8.296;2023-06-26T14:41:33;1.75;;;0.80;;
13985;SDS011;7067;51.832;8.296;2023-06-26T14:43:58;1.27;;;0.70;;
13985;SDS011;7067;51.832;8.296;2023-06-26T14:46:24;5.53;;;0.80;;
13985;SDS011;7067;51.832;8.296;2023-06-26T14:48:49;1.02;;;0.82;;
13985;SDS011;7067;51.832;8.296;2023-06-26T14:51:16;1.48;;;0.77;;
13985;SDS011;7067;51.832;8.296;2023-06-26T14:53:41;4.40;;;0.88;;
13985;SDS011;7067;51.832;8.296;2023-06-26T14:56:07;2.30;;;0.90;;
13985;SDS011;7067;51.832;8.296;2023-06-26T14:58:33;5.65;;;0.90;;
13985;SDS011;7067;51.832;8.296;2023-06-26T15:00:58;1.08;;;0.98;;
13985;SDS011;7067;51.832;8.296;2023-06-26T15:03:23;2.40;;;0.80;;
13985;SDS011;7067;51.832;8.296;2023-06-26T15:05:49;4.70;;;0.85;;
13985;SDS011;7067;51.832;8.296;2023-06-26T15:08:14;1.17;;;0.90;;
13985;SDS011;7067;51.832;8.296;2023-06-26T15:10:40;1.23;;;0.77;;
13985;SDS011;7067;51.832;8.296;2023-06-26T15:13:05;1.38;;;0.70;;
13985;SDS011;7067;51.832;8.296;2023-06-26T15:15:31;2.28;;;0.90;;
13985;SDS011;7067;51.832;8.296;2023-06-26T15:17:56;2.15;;;0.82;;
13985;SDS011;7067;51.832;8.296;2023-06-26T15:20:22;2.50;;;1.33;;
13985;SDS011;7067;51.832;8.296;2023-06-26T15:22:47;3.55;;;0.70;;
13985;SDS011;7067;51.832;8.296;2023-06-26T15:25:12;3.22;;;1.13;;
13985;SDS011;7067;51.832;8.296;2023-06-26T15:27:37;3.20;;;0.93;;
13985;SDS011;7067;51.832;8.296;2023-06-26T15:30:03;3.28;;;0.80;;
13985;SDS011;7067;51.832;8.296;2023-06-26T15:32:30;2.15;;;1.00;;
13985;SDS011;7067;51.832;8.296;2023-06-26T15:34:56;2.15;;;1.05;;
13985;SDS011;7067;51.832;8.296;2023-06-26T15:37:21;1.42;;;0.85;;
13985;SDS011;7067;51.832;8.296;2023-06-26T15:39:46;2.00;;;1.10;;
13985;SDS011;7067;51.832;8.296;2023-06-26T15:42:12;1.08;;;0.80;;
13985;SDS011;7067;51.832;8.296;2023-06-26T15:44:37;1.73;;;0.90;;
13985;SDS011;7067;51.832;8.296;2023-06-26T15:47:02;1.45;;;0.80;;
13985;SDS011;7067;51.832;8.296;2023-06-26T15:49:28;2.65;;;0.77;;